Time;durP1;ratioP1;P1;durP2;ratioP2;P2;SDS_P1;SDS_P2;PMS_P1;PMS_P2;Temp;Humidity;BMP_temperature;BMP_pressure;BME280_temperature;BME280_humidity;BME280_pressure;Samples;Min_cycle;Max_cycle;Signal;HPM_P1;HPM_P2
2023/07/29 00:00:57;;;;;;;1.80;1.70;;;;;;;;;;4993638;28;20022;-71
2023/07/29 00:03:24;;;;;;;2.40;1.80;;;;;;;;;;4993585;28;20419;-72
2023/07/29 00:05:50;;;;;;;1.90;1.67;;;;;;;;;;4994013;28;20026;-71
2023/07/29 00:08:16;;;;;;;2.70;1.90;;;;;;;;;;4993435;28;20030;-72
2023/07/29 00:10:42;;;;;;;2.17;1.52;;;;;;;;;;4993938;28;20021;-71
2023/07/29 00:13:08;;;;;;;2.80;1.92;;;;;;;;;;4993818;28;20023;-71
2023/07/29 00:15:34;;;;;;;1.52;1.42;;;;;;;;;;4993661;28;20105;-71
2023/07/29 00:18:01;;;;;;;1.70;1.60;;;;;;;;;;4992324;28;20030;-71
2023/07/29 00:20:27;;;;;;;2.72;2.03;;;;;;;;;;4993348;28;20026;-73
2023/07/29 00:22:54;;;;;;;2.58;2.28;;;;;;;;;;4993850;28;20026;-71
2023/07/29 00:25:20;;;;;;;3.35;1.80;;;;;;;;;;4993445;28;20038;-71
2023/07/29 00:27:46;;;;;;;1.98;1.77;;;;;;;;;;4993087;28;20148;-72
2023/07/29 00:30:12;;;;;;;2.15;1.90;;;;;;;;;;4993226;28;20089;-72
2023/07/29 00:32:38;;;;;;;3.88;1.88;;;;;;;;;;4990849;28;20030;-72
2023/07/29 00:35:05;;;;;;;3.05;1.98;;;;;;;;;;4993177;28;20512;-72
2023/07/29 00:37:31;;;;;;;2.00;1.80;;;;;;;;;;4992769;28;20046;-71
2023/07/29 00:39:58;;;;;;;4.78;2.72;;;;;;;;;;4993146;28;20022;-72
2023/07/29 00:42:24;;;;;;;2.25;1.75;;;;;;;;;;4993010;28;20035;-73
2023/07/29 00:44:50;;;;;;;1.77;1.65;;;;;;;;;;4993247;28;20041;-73
2023/07/29 00:47:16;;;;;;;3.58;2.10;;;;;;;;;;4992863;28;20033;-72
2023/07/29 00:49:44;;;;;;;2.60;1.98;;;;;;;;;;4992831;28;20022;-71
2023/07/29 00:52:12;;;;;;;1.95;1.85;;;;;;;;;;4992801;28;20144;-71
2023/07/29 00:54:38;;;;;;;2.67;2.28;;;;;;;;;;4992895;28;20176;-72
2023/07/29 00:57:05;;;;;;;4.20;1.85;;;;;;;;;;4992705;28;20031;-72
2023/07/29 00:59:31;;;;;;;5.20;1.85;;;;;;;;;;4992797;28;20331;-72
2023/07/29 01:01:58;;;;;;;3.10;1.92;;;;;;;;;;4992618;28;20572;-72
2023/07/29 01:04:24;;;;;;;3.25;2.00;;;;;;;;;;4992610;28;20414;-72
2023/07/29 01:06:50;;;;;;;1.92;1.60;;;;;;;;;;4991433;28;20022;-72
2023/07/29 01:09:25;;;;;;;2.20;1.98;;;;;;;;;;4992429;28;20034;-72
2023/07/29 01:11:51;;;;;;;3.25;1.60;;;;;;;;;;4992474;28;20137;-73
2023/07/29 01:14:32;;;;;;;3.53;3.22;;;;;;;;;;4992315;28;20101;-72
2023/07/29 01:17:03;;;;;;;2.58;1.88;;;;;;;;;;4992292;28;20035;-72
2023/07/29 01:19:35;;;;;;;1.90;1.80;;;;;;;;;;4992520;28;20034;-72
2023/07/29 01:22:02;;;;;;;2.15;2.00;;;;;;;;;;4991031;28;20113;-72
2023/07/29 01:24:28;;;;;;;1.50;1.40;;;;;;;;;;4992142;28;20431;-73
2023/07/29 01:26:54;;;;;;;6.72;1.75;;;;;;;;;;4990926;28;20121;-73
2023/07/29 01:29:20;;;;;;;3.20;1.90;;;;;;;;;;4992409;28;20033;-71
2023/07/29 01:31:48;;;;;;;1.88;1.77;;;;;;;;;;4990492;28;20105;-73
2023/07/29 01:34:18;;;;;;;2.70;1.50;;;;;;;;;;4992205;28;20129;-72
2023/07/29 01:36:45;;;;;;;7.90;1.98;;;;;;;;;;4992147;28;20105;-72
2023/07/29 01:39:12;;;;;;;2.42;1.83;;;;;;;;;;4991832;28;20034;-72
2023/07/29 01:41:38;;;;;;;3.13;1.65;;;;;;;;;;4992017;28;20018;-73
2023/07/29 01:44:04;;;;;;;2.00;1.75;;;;;;;;;;4991826;28;20116;-72
2023/07/29 01:46:32;;;;;;;1.73;1.63;;;;;;;;;;4991905;28;20034;-73
2023/07/29 01:48:58;;;;;;;2.88;1.60;;;;;;;;;;4991923;28;20438;-73
2023/07/29 01:51:24;;;;;;;1.88;1.75;;;;;;;;;;4991961;28;20054;-73
2023/07/29 01:53:50;;;;;;;4.55;1.58;;;;;;;;;;4991742;28;20097;-73
2023/07/29 01:56:16;;;;;;;3.10;1.60;;;;;;;;;;4992174;28;20034;-73
2023/07/29 01:58:42;;;;;;;1.65;1.48;;;;;;;;;;4991912;28;20022;-72
2023/07/29 02:01:08;;;;;;;3.47;1.60;;;;;;;;;;4992062;28;20490;-72
2023/07/29 02:03:34;;;;;;;3.20;1.73;;;;;;;;;;4991841;28;20030;-73
2023/07/29 02:06:00;;;;;;;3.03;1.67;;;;;;;;;;4991788;28;20054;-72
2023/07/29 02:08:26;;;;;;;2.38;2.00;;;;;;;;;;4991302;28;20105;-74
2023/07/29 02:10:52;;;;;;;1.70;1.60;;;;;;;;;;4991678;28;20045;-73
2023/07/29 02:13:18;;;;;;;1.65;1.55;;;;;;;;;;4991708;28;20028;-73
2023/07/29 02:15:44;;;;;;;1.58;1.48;;;;;;;;;;4990421;28;20023;-73
2023/07/29 02:18:10;;;;;;;2.25;1.63;;;;;;;;;;4991507;28;20030;-74
2023/07/29 02:20:36;;;;;;;6.18;1.70;;;;;;;;;;4991691;28;20023;-73
2023/07/29 02:23:02;;;;;;;2.78;1.63;;;;;;;;;;4991552;28;20034;-73
2023/07/29 02:25:28;;;;;;;3.53;1.70;;;;;;;;;;4991581;28;20084;-73
2023/07/29 02:27:54;;;;;;;2.95;1.55;;;;;;;;;;4991267;28;20498;-72
2023/07/29 02:30:21;;;;;;;1.67;1.58;;;;;;;;;;4991207;28;20034;-72
2023/07/29 02:32:47;;;;;;;1.38;1.27;;;;;;;;;;4991135;28;20519;-72
2023/07/29 02:35:13;;;;;;;2.90;1.48;;;;;;;;;;4991429;28;20114;-73
2023/07/29 02:37:39;;;;;;;1.33;1.23;;;;;;;;;;4991095;28;20033;-71
2023/07/29 02:40:05;;;;;;;1.45;1.20;;;;;;;;;;4991727;28;20052;-72
2023/07/29 02:42:32;;;;;;;1.30;1.20;;;;;;;;;;4991154;28;20022;-72
2023/07/29 02:44:58;;;;;;;2.53;1.20;;;;;;;;;;4991379;28;20026;-71
2023/07/29 02:47:24;;;;;;;1.52;1.42;;;;;;;;;;4991116;28;20130;-72
2023/07/29 02:49:50;;;;;;;1.67;1.20;;;;;;;;;;4991106;28;20525;-71
2023/07/29 02:52:16;;;;;;;2.22;1.10;;;;;;;;;;4990905;28;20025;-71
2023/07/29 02:54:42;;;;;;;2.35;1.38;;;;;;;;;;4991587;28;20025;-71
2023/07/29 02:57:08;;;;;;;1.55;1.25;;;;;;;;;;4993670;28;20026;-70
2023/07/29 02:59:34;;;;;;;1.13;1.02;;;;;;;;;;4994993;28;20022;-70
2023/07/29 03:02:00;;;;;;;2.50;1.15;;;;;;;;;;4994904;28;20027;-71
2023/07/29 03:04:27;;;;;;;1.30;0.98;;;;;;;;;;4994754;28;20103;-70
2023/07/29 03:06:53;;;;;;;3.75;0.93;;;;;;;;;;4994763;28;20101;-71
2023/07/29 03:09:19;;;;;;;0.95;0.90;;;;;;;;;;4994778;28;20138;-71
2023/07/29 03:11:45;;;;;;;3.28;1.67;;;;;;;;;;4994752;28;20097;-70
2023/07/29 03:14:12;;;;;;;2.97;1.08;;;;;;;;;;4994881;28;20026;-70
2023/07/29 03:16:38;;;;;;;1.17;0.80;;;;;;;;;;4994775;28;20509;-69
2023/07/29 03:19:06;;;;;;;0.70;0.70;;;;;;;;;;4994743;28;20041;-73
2023/07/29 03:21:32;;;;;;;0.77;0.75;;;;;;;;;;4994753;28;20033;-72
2023/07/29 03:23:58;;;;;;;1.13;1.10;;;;;;;;;;4993330;28;20122;-72
2023/07/29 03:26:25;;;;;;;1.30;0.80;;;;;;;;;;4994411;28;20507;-71
2023/07/29 03:28:51;;;;;;;1.85;1.00;;;;;;;;;;4994289;28;20049;-72
2023/07/29 03:31:17;;;;;;;1.05;1.00;;;;;;;;;;4994291;28;20324;-72
2023/07/29 03:33:43;;;;;;;1.38;1.05;;;;;;;;;;4994242;28;20500;-70
2023/07/29 03:36:09;;;;;;;3.90;1.00;;;;;;;;;;4994615;28;20030;-70
2023/07/29 03:38:39;;;;;;;1.10;1.00;;;;;;;;;;4994244;28;20021;-71
2023/07/29 03:41:05;;;;;;;1.30;1.08;;;;;;;;;;4994158;28;20022;-71
2023/07/29 03:43:31;;;;;;;1.10;1.00;;;;;;;;;;4994257;28;20030;-71
2023/07/29 03:45:57;;;;;;;0.77;0.77;;;;;;;;;;4994208;28;20029;-70
2023/07/29 03:48:23;;;;;;;1.52;0.82;;;;;;;;;;4993629;28;20041;-72
2023/07/29 03:50:49;;;;;;;2.22;0.90;;;;;;;;;;4994126;28;20378;-71
2023/07/29 03:53:15;;;;;;;0.73;0.73;;;;;;;;;;4994041;28;20015;-72
2023/07/29 03:55:41;;;;;;;2.40;0.90;;;;;;;;;;4994120;28;20022;-71
2023/07/29 03:58:07;;;;;;;2.15;0.90;;;;;;;;;;4995425;28;20057;-71
2023/07/29 04:00:33;;;;;;;0.88;0.70;;;;;;;;;;5007821;28;20026;-71
2023/07/29 04:02:59;;;;;;;1.10;0.80;;;;;;;;;;5012341;28;20045;-72
2023/07/29 04:05:26;;;;;;;1.30;0.80;;;;;;;;;;5003617;28;20065;-71
2023/07/29 04:07:53;;;;;;;1.02;1.00;;;;;;;;;;5008923;28;20429;-72
2023/07/29 04:10:19;;;;;;;0.63;0.55;;;;;;;;;;5002538;28;20026;-72
2023/07/29 04:12:45;;;;;;;0.70;0.65;;;;;;;;;;5003403;28;20029;-72
2023/07/29 04:15:11;;;;;;;0.65;0.65;;;;;;;;;;4999529;28;20026;-72
2023/07/29 04:17:37;;;;;;;1.20;1.10;;;;;;;;;;5000744;28;20065;-73
2023/07/29 04:20:04;;;;;;;0.68;0.65;;;;;;;;;;5000875;28;20022;-72
2023/07/29 04:22:30;;;;;;;3.42;0.80;;;;;;;;;;5000640;28;20053;-72
2023/07/29 04:24:56;;;;;;;1.05;0.68;;;;;;;;;;4999833;28;20482;-72
2023/07/29 04:27:22;;;;;;;2.08;0.82;;;;;;;;;;4996978;28;20030;-72
2023/07/29 04:29:48;;;;;;;3.33;1.20;;;;;;;;;;4995875;28;20033;-73
2023/07/29 04:32:14;;;;;;;1.83;0.85;;;;;;;;;;4997587;28;20034;-72
2023/07/29 04:34:40;;;;;;;0.82;0.57;;;;;;;;;;4997191;28;20466;-72
2023/07/29 04:37:06;;;;;;;2.10;0.60;;;;;;;;;;4994302;28;20026;-74
2023/07/29 04:39:33;;;;;;;2.15;0.80;;;;;;;;;;4993862;28;20026;-73
2023/07/29 04:42:00;;;;;;;0.73;0.47;;;;;;;;;;4993237;28;20038;-72
2023/07/29 04:44:26;;;;;;;0.60;0.60;;;;;;;;;;4993189;28;20033;-73
2023/07/29 04:46:52;;;;;;;0.80;0.80;;;;;;;;;;4992878;28;20489;-72
2023/07/29 04:49:18;;;;;;;1.17;1.02;;;;;;;;;;4993051;28;20037;-73
2023/07/29 04:51:44;;;;;;;0.77;0.68;;;;;;;;;;4992817;28;20023;-73
2023/07/29 04:54:10;;;;;;;1.38;0.80;;;;;;;;;;4993148;28;20022;-72
2023/07/29 04:56:36;;;;;;;0.57;0.50;;;;;;;;;;4984800;28;20023;-73
2023/07/29 04:59:02;;;;;;;2.63;0.82;;;;;;;;;;4992891;28;20629;-72
2023/07/29 05:01:28;;;;;;;1.95;0.90;;;;;;;;;;4992597;28;20045;-72
2023/07/29 05:03:54;;;;;;;0.68;0.60;;;;;;;;;;4992647;28;20034;-72
2023/07/29 05:06:20;;;;;;;0.70;0.47;;;;;;;;;;4992656;28;20375;-72
2023/07/29 05:08:46;;;;;;;0.70;0.70;;;;;;;;;;4992507;28;20034;-72
2023/07/29 05:11:12;;;;;;;1.00;0.77;;;;;;;;;;4992426;28;20034;-72
2023/07/29 05:13:39;;;;;;;0.60;0.60;;;;;;;;;;4992444;28;20089;-71
2023/07/29 05:16:05;;;;;;;0.68;0.47;;;;;;;;;;4992838;28;20064;-72
2023/07/29 05:18:31;;;;;;;2.17;0.68;;;;;;;;;;4991478;28;20026;-72
2023/07/29 05:20:57;;;;;;;1.13;0.73;;;;;;;;;;4992066;28;20027;-72
2023/07/29 05:23:23;;;;;;;0.70;0.70;;;;;;;;;;4991801;28;20053;-73
2023/07/29 05:25:49;;;;;;;3.67;0.90;;;;;;;;;;4992348;28;20118;-72
2023/07/29 05:28:14;;;;;;;1.05;0.60;;;;;;;;;;4992141;28;20049;-72
2023/07/29 05:30:40;;;;;;;1.15;0.40;;;;;;;;;;4992333;28;20471;-72
2023/07/29 05:33:30;;;;;;;1.15;0.57;;;;;;;;;;5009190;23;20085;-76
2023/07/29 05:36:10;;;;;;;0.95;0.52;;;;;;;;;;4975039;28;20022;-76
2023/07/29 05:38:39;;;;;;;2.15;0.32;;;;;;;;;;4975347;28;20022;-75
2023/07/29 05:41:05;;;;;;;0.70;0.57;;;;;;;;;;4976739;28;20025;-76
2023/07/29 05:43:31;;;;;;;1.02;0.47;;;;;;;;;;4972784;28;20053;-74
2023/07/29 05:46:09;;;;;;;1.83;0.90;;;;;;;;;;4983239;28;20429;-74
2023/07/29 05:48:37;;;;;;;1.95;0.60;;;;;;;;;;4975202;28;20039;-73
2023/07/29 05:51:16;;;;;;;0.50;0.50;;;;;;;;;;4969967;28;20027;-74
2023/07/29 05:53:42;;;;;;;1.58;0.70;;;;;;;;;;4980245;28;20026;-74
2023/07/29 05:56:34;;;;;;;0.63;0.50;;;;;;;;;;4964381;28;20483;-74
2023/07/29 05:59:12;;;;;;;0.60;0.60;;;;;;;;;;4961819;28;20118;-74
2023/07/29 06:01:40;;;;;;;2.03;0.70;;;;;;;;;;4985202;28;20026;-74
2023/07/29 06:04:16;;;;;;;0.38;0.38;;;;;;;;;;4988020;28;20027;-74
2023/07/29 06:06:45;;;;;;;0.80;0.80;;;;;;;;;;4969486;28;20050;-74
2023/07/29 06:09:16;;;;;;;0.93;0.60;;;;;;;;;;4980481;28;20030;-75
2023/07/29 06:11:42;;;;;;;;;;;;;;;;;;4974231;28;20026;-75
2023/07/29 06:14:14;;;;;;;1.17;0.70;;;;;;;;;;4980070;28;19912;-74
2023/07/29 06:16:40;;;;;;;0.60;0.60;;;;;;;;;;4972658;28;20023;-74
2023/07/29 06:19:14;;;;;;;0.80;0.60;;;;;;;;;;4982342;28;20026;-75
2023/07/29 06:21:42;;;;;;;0.68;0.68;;;;;;;;;;4974179;28;20046;-74
2023/07/29 06:24:08;;;;;;;2.78;0.73;;;;;;;;;;4974870;28;20023;-74
2023/07/29 06:26:34;;;;;;;0.80;0.80;;;;;;;;;;4975790;28;20094;-74
2023/07/29 06:29:00;;;;;;;1.45;0.80;;;;;;;;;;4971820;28;20114;-74
2023/07/29 06:31:26;;;;;;;2.22;0.70;;;;;;;;;;4985042;28;20019;-75
2023/07/29 06:33:54;;;;;;;0.47;0.47;;;;;;;;;;4969204;28;20030;-75
2023/07/29 06:36:23;;;;;;;1.88;1.00;;;;;;;;;;4974879;28;20019;-75
2023/07/29 06:38:52;;;;;;;1.08;0.73;;;;;;;;;;4985351;28;20046;-75
2023/07/29 06:41:19;;;;;;;1.20;0.68;;;;;;;;;;4980761;28;20061;-73
2023/07/29 06:43:50;;;;;;;0.90;0.80;;;;;;;;;;4975876;28;20031;-75
2023/07/29 06:46:17;;;;;;;1.45;0.60;;;;;;;;;;4974747;28;20037;-75
2023/07/29 06:48:43;;;;;;;1.08;0.65;;;;;;;;;;4987913;28;20038;-75
2023/07/29 06:51:09;;;;;;;1.35;1.25;;;;;;;;;;4978216;28;20460;-75
2023/07/29 06:53:35;;;;;;;0.80;0.80;;;;;;;;;;4975737;28;20030;-74
2023/07/29 06:56:01;;;;;;;0.77;0.70;;;;;;;;;;4977923;28;20026;-75
2023/07/29 06:58:27;;;;;;;1.05;0.60;;;;;;;;;;4984871;28;20026;-75
2023/07/29 07:00:53;;;;;;;0.70;0.70;;;;;;;;;;4978080;28;20027;-76
2023/07/29 07:03:19;;;;;;;0.70;0.63;;;;;;;;;;4972935;28;20030;-74
2023/07/29 07:05:45;;;;;;;1.45;0.73;;;;;;;;;;4971243;28;20355;-74
2023/07/29 07:08:11;;;;;;;0.82;0.73;;;;;;;;;;4975207;28;20019;-75
2023/07/29 07:10:37;;;;;;;1.63;0.75;;;;;;;;;;4971348;28;20419;-75
2023/07/29 07:13:03;;;;;;;1.17;0.88;;;;;;;;;;4982127;28;20106;-75
2023/07/29 07:15:29;;;;;;;2.35;1.08;;;;;;;;;;4981214;28;20055;-75
2023/07/29 07:17:55;;;;;;;1.55;1.00;;;;;;;;;;4978653;28;20023;-75
2023/07/29 07:20:21;;;;;;;2.83;0.82;;;;;;;;;;4976404;28;20034;-75
2023/07/29 07:22:47;;;;;;;0.60;0.60;;;;;;;;;;4979359;28;20022;-75
2023/07/29 07:25:13;;;;;;;1.65;0.70;;;;;;;;;;4977594;28;20050;-75
2023/07/29 07:27:39;;;;;;;0.60;0.60;;;;;;;;;;4976756;28;20029;-76
2023/07/29 07:30:06;;;;;;;4.97;0.93;;;;;;;;;;4982974;28;20025;-74
2023/07/29 07:32:32;;;;;;;0.50;0.50;;;;;;;;;;4977505;28;20034;-76
2023/07/29 07:34:58;;;;;;;2.28;0.77;;;;;;;;;;4973676;28;20479;-72
2023/07/29 07:37:24;;;;;;;1.15;0.70;;;;;;;;;;4973372;28;20030;-72
2023/07/29 07:39:49;;;;;;;0.68;0.68;;;36.60;32.90;;;;;;4971115;28;20031;-72
2023/07/29 07:42:15;;;;;;;2.70;0.65;;;37.20;32.40;;;;;;4966671;28;20104;-74
2023/07/29 07:44:41;;;;;;;0.85;0.80;;;38.00;30.70;;;;;;4973848;28;20019;-72
2023/07/29 07:47:07;;;;;;;1.10;0.85;;;;;;;;;;4978022;28;20027;-72
2023/07/29 07:49:32;;;;;;;0.85;0.77;;;34.20;35.30;;;;;;4976420;28;20469;-73
2023/07/29 07:51:58;;;;;;;1.55;0.77;;;33.10;37.20;;;;;;4973759;28;20040;-72
2023/07/29 07:54:24;;;;;;;0.68;0.68;;;;;;;;;;4974815;28;20034;-72
2023/07/29 07:56:49;;;;;;;0.60;0.60;;;30.70;42.80;;;;;;4972722;28;20437;-72
2023/07/29 07:59:15;;;;;;;1.17;0.70;;;30.30;43.40;;;;;;4975613;28;20054;-72
2023/07/29 08:01:41;;;;;;;2.15;0.57;;;30.00;44.00;;;;;;4976824;28;20027;-72
2023/07/29 08:04:06;;;;;;;0.77;0.73;;;30.30;43.90;;;;;;4974950;28;20030;-72
2023/07/29 08:06:33;;;;;;;4.43;1.35;;;30.40;43.30;;;;;;4974019;28;20117;-73
2023/07/29 08:08:59;;;;;;;2.03;1.33;;;30.40;43.70;;;;;;4973916;28;20035;-73
2023/07/29 08:11:25;;;;;;;0.75;0.75;;;30.20;43.30;;;;;;4974119;28;20030;-74
2023/07/29 08:13:50;;;;;;;1.05;0.88;;;30.00;44.20;;;;;;4982112;28;20015;-73
2023/07/29 08:16:16;;;;;;;0.75;0.60;;;;;;;;;;4973770;28;20042;-72
2023/07/29 08:18:42;;;;;;;1.80;0.70;;;;;;;;;;4977257;28;20058;-73
2023/07/29 08:21:08;;;;;;;2.28;0.90;;;;;;;;;;4977242;28;20054;-73
2023/07/29 08:23:35;;;;;;;0.50;0.50;;;;;;;;;;4979821;28;20581;-72
2023/07/29 08:26:03;;;;;;;0.32;0.32;;;;;;;;;;4974174;28;20059;-73
2023/07/29 08:28:35;;;;;;;0.40;0.38;;;32.40;40.20;;;;;;4973500;28;20022;-74
2023/07/29 08:31:00;;;;;;;1.85;0.70;;;32.80;37.60;;;;;;4973786;28;20022;-73
2023/07/29 08:33:27;;;;;;;2.13;0.30;;;32.20;38.50;;;;;;4972493;28;20038;-73
2023/07/29 08:35:52;;;;;;;2.25;0.55;;;32.20;38.90;;;;;;4979210;28;20035;-71
2023/07/29 08:38:18;;;;;;;0.40;0.40;;;32.80;37.30;;;;;;4973353;28;20132;-71
2023/07/29 08:40:55;;;;;;;0.65;0.60;;;33.50;35.80;;;;;;4973534;28;20506;-72
2023/07/29 08:43:31;;;;;;;0.32;0.32;;;34.20;36.60;;;;;;4976785;28;20105;-72
2023/07/29 08:45:58;;;;;;;1.73;0.40;;;35.30;33.80;;;;;;4985173;28;20371;-72
2023/07/29 08:48:41;;;;;;;0.80;0.40;;;34.90;33.90;;;;;;4981169;28;20481;-72
2023/07/29 08:51:09;;;;;;;0.40;0.40;;;34.50;34.30;;;;;;4973155;28;20401;-72
2023/07/29 08:53:35;;;;;;;0.40;0.40;;;34.10;35.90;;;;;;4978950;28;20029;-73
2023/07/29 08:56:01;;;;;;;0.55;0.55;;;34.00;35.30;;;;;;4972248;28;20031;-72
2023/07/29 08:58:28;;;;;;;0.68;0.43;;;34.00;35.30;;;;;;4971722;28;20438;-72
2023/07/29 09:00:54;;;;;;;0.40;0.30;;;33.90;36.30;;;;;;4976400;28;20525;-72
2023/07/29 09:03:20;;;;;;;0.50;0.50;;;33.40;37.30;;;;;;4972827;28;20031;-72
2023/07/29 09:05:46;;;;;;;0.60;0.40;;;32.80;37.30;;;;;;4972968;28;20015;-72
2023/07/29 09:08:12;;;;;;;1.15;0.68;;;32.20;38.80;;;;;;4972918;28;20483;-72
2023/07/29 09:10:38;;;;;;;0.60;0.60;;;;;;;;;;4971930;28;20068;-72
2023/07/29 09:13:05;;;;;;;0.70;0.63;;;;;;;;;;4989053;28;20037;-73
2023/07/29 09:15:32;;;;;;;1.20;0.60;;;;;;;;;;4976114;28;20027;-72
2023/07/29 09:17:59;;;;;;;0.80;0.75;;;;;;;;;;4976323;28;20134;-72
2023/07/29 09:20:26;;;;;;;0.70;0.70;;;;;;;;;;4972873;28;20095;-73
2023/07/29 09:22:52;;;;;;;0.60;0.60;;;;;;;;;;4972976;28;20154;-73
2023/07/29 09:25:23;;;;;;;1.35;0.65;;;;;;;;;;4980719;28;20079;-73
2023/07/29 09:27:49;;;;;;;1.90;0.80;;;;;;;;;;4972780;28;20181;-72
2023/07/29 09:30:18;;;;;;;0.70;0.70;;;;;;;;;;4972389;28;20027;-73
2023/07/29 09:32:44;;;;;;;0.50;0.50;;;;;;;;;;4972417;28;20037;-74
2023/07/29 09:35:11;;;;;;;0.70;0.60;;;;;;;;;;4972362;28;20031;-73
2023/07/29 09:37:38;;;;;;;1.35;1.10;;;;;;;;;;4973576;28;20050;-73
2023/07/29 09:40:04;;;;;;;0.90;0.68;;;;;;;;;;4969739;28;20081;-73
2023/07/29 09:42:31;;;;;;;1.73;0.90;;;;;;;;;;4975742;28;20051;-73
2023/07/29 09:44:57;;;;;;;0.70;0.70;;;;;;;;;;4973044;28;20023;-73
2023/07/29 09:47:24;;;;;;;1.00;0.90;;;;;;;;;;4986006;28;20448;-73
2023/07/29 09:49:53;;;;;;;4.03;1.02;;;;;;;;;;4977275;28;20405;-73
2023/07/29 09:52:20;;;;;;;1.85;0.90;;;;;;;;;;4984004;28;20058;-73
2023/07/29 09:54:47;;;;;;;1.15;1.00;;;;;;;;;;4977038;28;20489;-74
2023/07/29 09:57:18;;;;;;;1.15;1.15;;;;;;;;;;4987296;28;20026;-73
2023/07/29 09:59:55;;;;;;;1.17;0.90;;;;;;;;;;4972941;28;20031;-73
2023/07/29 10:02:21;;;;;;;3.22;2.92;;;;;;;;;;4961833;28;20034;-73
2023/07/29 10:04:47;;;;;;;1.00;0.80;;;;;;;;;;4975335;28;20027;-73
2023/07/29 10:07:13;;;;;;;1.35;1.08;;;;;;;;;;4975174;28;20424;-73
2023/07/29 10:09:40;;;;;;;2.10;1.20;;;;;;;;;;4971427;28;20031;-73
2023/07/29 10:12:10;;;;;;;3.08;1.00;;;;;;;;;;4975763;28;20026;-74
2023/07/29 10:14:37;;;;;;;2.33;1.08;;;;;;;;;;4975543;28;20026;-73
2023/07/29 10:17:05;;;;;;;3.28;1.25;;;;;;;;;;4970357;28;20018;-73
2023/07/29 10:19:31;;;;;;;1.65;1.35;;;;;;;;;;4971802;28;20031;-73
2023/07/29 10:22:00;;;;;;;2.85;1.33;;;;;;;;;;4976853;28;20471;-73
2023/07/29 10:24:30;;;;;;;4.30;1.75;;;;;;;;;;4974551;28;20033;-73
2023/07/29 10:27:00;;;;;;;1.48;1.10;;;;;;;;;;4970118;28;20030;-73
2023/07/29 10:29:31;;;;;;;2.50;0.97;;;;;;;;;;4979669;28;20030;-72
2023/07/29 10:31:58;;;;;;;2.75;0.85;;;;;;;;;;4971793;28;20046;-73
2023/07/29 10:34:24;;;;;;;1.50;0.55;;;;;;;;;;4969622;28;20557;-73
2023/07/29 10:36:52;;;;;;;0.70;0.65;;;;;;;;;;4963181;28;20058;-73
2023/07/29 10:39:18;;;;;;;1.38;0.85;;;;;;;;;;4968541;28;20073;-72
2023/07/29 10:41:59;;;;;;;1.27;0.80;;;;;;;;;;4970836;28;20044;-73
2023/07/29 10:44:57;;;;;;;0.90;0.70;;;;;;;;;;4977691;28;20431;-73
2023/07/29 10:47:27;;;;;;;1.65;0.95;;;;;;;;;;4939748;28;20117;-72
2023/07/29 10:49:57;;;;;;;0.70;0.70;;;;;;;;;;4974888;28;20033;-73
2023/07/29 10:52:29;;;;;;;2.05;0.68;;;;;;;;;;4981848;28;20026;-72
2023/07/29 10:54:55;;;;;;;0.95;0.75;;;;;;;;;;4960351;28;20024;-73
2023/07/29 10:57:35;;;;;;;2.25;1.20;;;;;;;;;;4965735;28;20030;-73
2023/07/29 11:00:01;;;;;;;1.30;0.80;;;;;;;;;;4971901;28;20114;-73
2023/07/29 11:02:31;;;;;;;1.50;0.63;;;;;;;;;;4974696;28;20423;-73
2023/07/29 11:04:57;;;;;;;2.10;1.15;;;;;;;;;;4971567;28;20027;-74
2023/07/29 11:07:26;;;;;;;1.17;1.02;;;;;;;;;;4974475;28;20058;-74
2023/07/29 11:09:52;;;;;;;4.03;1.05;;;;;;;;;;4971069;28;20059;-73
2023/07/29 11:12:36;;;;;;;0.55;0.55;;;;;;;;;;4975909;28;20022;-74
2023/07/29 11:15:04;;;;;;;1.20;0.90;;;;;;;;;;4969971;28;20113;-73
2023/07/29 11:17:34;;;;;;;1.10;0.88;;;28.50;60.40;;;;;;4977492;28;20061;-74
2023/07/29 11:20:03;;;;;;;1.10;1.00;;;28.70;57.80;;;;;;4978317;28;20122;-74
2023/07/29 11:22:30;;;;;;;0.93;0.80;;;29.00;56.50;;;;;;4975004;28;20034;-72
2023/07/29 11:25:01;;;;;;;1.08;0.98;;;28.90;55.70;;;;;;4977572;28;20035;-72
2023/07/29 11:27:26;;;;;;;4.22;2.40;;;28.80;54.80;;;;;;4982709;28;20030;-72
2023/07/29 11:30:10;;;;;;;1.67;1.35;;;28.50;54.40;;;;;;4975240;28;20105;-74
2023/07/29 11:32:37;;;;;;;1.70;0.88;;;28.00;56.40;;;;;;4981726;28;20662;-74
2023/07/29 11:35:14;;;;;;;1.08;0.80;;;27.70;58.80;;;;;;5011352;23;20481;-72
2023/07/29 11:37:42;;;;;;;1.38;1.27;;;27.40;59.50;;;;;;4998671;28;20025;-72
2023/07/29 11:40:10;;;;;;;2.47;1.55;;;27.50;59.70;;;;;;5006682;28;20087;-71
2023/07/29 11:42:36;;;;;;;1.60;1.10;;;27.70;59.20;;;;;;4999643;28;20019;-72
2023/07/29 11:45:03;;;;;;;1.77;1.00;;;28.20;58.60;;;;;;5005668;28;20030;-71
2023/07/29 11:47:29;;;;;;;1.55;1.05;;;28.40;57.70;;;;;;5012450;28;20030;-71
2023/07/29 11:49:59;;;;;;;3.58;1.00;;;28.70;55.90;;;;;;5013325;28;20120;-69
2023/07/29 11:52:24;;;;;;;2.03;0.80;;;29.00;54.90;;;;;;5012331;28;20049;-71
2023/07/29 11:54:50;;;;;;;1.38;1.27;;;29.10;54.50;;;;;;5013366;28;20092;-71
2023/07/29 11:57:18;;;;;;;1.58;1.15;;;28.90;55.10;;;;;;5012940;28;20029;-71
2023/07/29 11:59:44;;;;;;;2.42;1.50;;;28.50;55.70;;;;;;5017076;28;20018;-71
2023/07/29 12:02:15;;;;;;;1.17;1.00;;;28.30;56.70;;;;;;5013309;28;20052;-70
2023/07/29 12:04:42;;;;;;;2.30;1.02;;;28.30;57.10;;;;;;5005666;28;20533;-72
2023/07/29 12:07:08;;;;;;;25.80;19.50;;;28.10;57.80;;;;;;5013071;28;20041;-58
2023/07/29 12:09:35;;;;;;;22.60;17.33;;;28.20;57.20;;;;;;5012702;28;20022;-55
2023/07/29 12:12:03;;;;;;;16.80;13.23;;;28.50;56.60;;;;;;5013157;28;20053;-59
2023/07/29 12:14:29;;;;;;;6.88;5.18;;;28.50;57.30;;;;;;5012854;28;20026;-61
2023/07/29 12:16:55;;;;;;;21.70;14.52;;;28.50;55.50;;;;;;5012944;28;20390;-58
2023/07/29 12:19:21;;;;;;;7.40;5.53;;;28.50;56.50;;;;;;5012917;28;20026;-62
2023/07/29 12:21:48;;;;;;;19.83;16.13;;;28.80;57.00;;;;;;5012603;28;20395;-60
2023/07/29 12:24:14;;;;;;;4.65;3.75;;;28.50;56.30;;;;;;5012729;28;20026;-73
2023/07/29 12:26:41;;;;;;;2.17;1.50;;;28.70;55.90;;;;;;5013012;28;20033;-73
2023/07/29 12:29:19;;;;;;;1.55;1.08;;;28.70;52.40;;;;;;5012248;28;20520;-74
2023/07/29 12:31:45;;;;;;;1.90;0.77;;;28.80;51.70;;;;;;5010571;28;20014;-74
2023/07/29 12:34:21;;;;;;;1.52;1.33;;;29.00;50.80;;;;;;5013063;28;20028;-74
2023/07/29 12:36:48;;;;;;;1.05;0.90;;;29.00;50.20;;;;;;5005775;28;20221;-73
2023/07/29 12:39:21;;;;;;;9.07;6.95;;;29.00;50.00;;;;;;5013213;28;20370;-72
2023/07/29 12:41:49;;;;;;;8.00;2.03;;;29.20;49.00;;;;;;5013038;28;20022;-73
2023/07/29 12:44:14;;;;;;;4.18;3.78;;;29.30;48.50;;;;;;5012667;28;20030;-73
2023/07/29 12:46:40;;;;;;;12.45;10.40;;;29.40;48.30;;;;;;5012655;28;20076;-74
2023/07/29 12:49:06;;;;;;;6.15;3.30;;;;;;;;;;5008131;28;20379;-73
2023/07/29 12:51:33;;;;;;;3.88;3.08;;;;;;;;;;5011870;28;20500;-72
2023/07/29 12:53:59;;;;;;;1.90;0.70;;;;;;;;;;5012722;28;20133;-73
2023/07/29 12:56:25;;;;;;;0.90;0.80;;;;;;;;;;5012899;28;20498;-73
2023/07/29 12:58:51;;;;;;;3.10;2.80;;;;;;;;;;5013073;28;20517;-74
2023/07/29 13:01:18;;;;;;;1.25;0.70;;;;;;;;;;5012711;28;20088;-73
2023/07/29 13:03:47;;;;;;;4.47;1.08;;;;;;;;;;5012745;28;20022;-73
2023/07/29 13:06:13;;;;;;;4.50;1.85;;;;;;;;;;5012349;28;20022;-73
2023/07/29 13:08:39;;;;;;;1.10;1.00;;;;;;;;;;5012224;28;20018;-72
2023/07/29 13:11:05;;;;;;;1.20;1.00;;;;;;;;;;5012239;28;20033;-72
2023/07/29 13:13:31;;;;;;;1.13;0.80;;;;;;;;;;5010989;28;20101;-73
2023/07/29 13:15:57;;;;;;;3.03;0.80;;;;;;;;;;5010797;28;20383;-72
2023/07/29 13:18:23;;;;;;;1.20;1.00;;;;;;;;;;5011816;28;20025;-72
2023/07/29 13:20:50;;;;;;;1.08;1.00;;;;;;;;;;5012240;28;20018;-72
2023/07/29 13:23:16;;;;;;;0.98;0.70;;;;;;;;;;5011699;28;20030;-72
2023/07/29 13:25:42;;;;;;;0.60;0.60;;;;;;;;;;5009994;28;20022;-72
2023/07/29 13:28:09;;;;;;;1.67;0.65;;;;;;;;;;5009934;28;20109;-70
2023/07/29 13:30:35;;;;;;;2.25;0.70;;;;;;;;;;5008699;28;20029;-72
2023/07/29 13:33:01;;;;;;;0.82;0.60;;;;;;;;;;5009950;28;20029;-72
2023/07/29 13:35:27;;;;;;;1.35;0.98;;;;;;;;;;5009766;28;20030;-72
2023/07/29 13:37:53;;;;;;;3.85;1.40;;;;;;;;;;5009470;28;20511;-72
2023/07/29 13:40:20;;;;;;;12.43;9.57;;;;;;;;;;5010274;28;20074;-66
2023/07/29 13:42:46;;;;;;;20.27;15.10;;;;;;;;;;5011616;28;20072;-60
2023/07/29 13:45:12;;;;;;;33.53;26.13;;;;;;;;;;5009903;28;20030;-61
2023/07/29 13:47:38;;;;;;;32.42;24.98;;;;;;;;;;5009336;28;20072;-57
2023/07/29 13:50:04;;;;;;;12.38;9.68;;;;;;;;;;5010481;28;20030;-59
2023/07/29 13:52:30;;;;;;;8.50;6.60;;;;;;;;;;5010463;28;20520;-61
2023/07/29 13:54:56;;;;;;;4.20;3.22;;;;;;;;;;5010352;28;20014;-60
2023/07/29 13:57:22;;;;;;;2.28;1.63;;;;;;;;;;5009954;28;20022;-61
2023/07/29 13:59:48;;;;;;;2.33;2.13;;;;;;;;;;5011240;28;20385;-59
2023/07/29 14:02:14;;;;;;;3.75;2.95;;;;;;;;;;5011537;28;20033;-59
2023/07/29 14:04:40;;;;;;;3.10;2.60;;;;;;;;;;5011519;28;20030;-55
2023/07/29 14:07:06;;;;;;;1.50;1.08;;;;;;;;;;5011138;28;20045;-57
2023/07/29 14:09:32;;;;;;;1.77;1.60;;;;;;;;;;5011717;28;20025;-57
2023/07/29 14:11:58;;;;;;;2.92;1.83;;;;;;;;;;5011479;28;20048;-59
2023/07/29 14:14:24;;;;;;;1.10;1.00;;;;;;;;;;5009346;28;20454;-58
2023/07/29 14:16:50;;;;;;;1.58;1.33;;;;;;;;;;5011135;28;20492;-59
2023/07/29 14:19:16;;;;;;;1.55;1.17;;;;;;;;;;5010447;28;20347;-56